Jump to content


Photo

CGR operando nos mínimos


  • You cannot start a new topic
  • Please log in to reply
2 replies to this topic

#1 black power

black power
  • Usuários
  • 198 posts
  • Gender:Male
  • Cidade/UF/País:Campo Grande/MS/Brasil
  • Data de Nascimento:26/06/1975

Posted 21 de June de 2013 - 14:20

Hoje CGR amanheceu sob forte neblina que obrigou o aero a fechar para pousos e decolagens por volta das 02:45. Reabriu por volta das 09:30 e fechou novamente ao meio dia.

METAR SBCG 211700Z 32010KT 0400 R06///// FG BKN001 SCT002 17/17 Q1014=

#2 jecsantos

jecsantos
  • Usuários
  • 1,761 posts
  • Gender:Male
  • Location:Campo Grande
  • Cidade/UF/País:Campo Grande/MS/Brasil
  • Data de Nascimento:26/12/1987

Posted 21 de June de 2013 - 14:23

Posted Image
Foto minha

A neblina esta bem forte mesmo

#3 jecsantos

jecsantos
  • Usuários
  • 1,761 posts
  • Gender:Male
  • Location:Campo Grande
  • Cidade/UF/País:Campo Grande/MS/Brasil
  • Data de Nascimento:26/12/1987

Posted 22 de June de 2013 - 14:31

CGR fechou novamente hoje de manhã...Bem-vindos ao inverno..!!